Barnesville, Georgia
Current Conditions -  °F | °C
As of 12:55 PM on Monday 24 Nov 2014 (Local Time) from KOPN Reporting Station
Clear Clear  
Wind Chill: 25°   Ceiling: Unl
Heat Index: 26°   Visibility: 10mi
Dew Point: 14°   Wind: 16mph
Humidity: 50%   Direction: 270°W
Pressure: 29.82"   Gusts: 21mph
Location:  33.05°N, 84.16°W
Report Text: KOPN 241755Z AUTO 27014G18KT 10SM CLR 25/14 A2982 RMK AO2
Loading
Personal Weather Stations






























Interactive Weather Map New forecast layout! Learn more

10-Day Weather Forecast

Advertisements
Track Severe Weather on mobile